Time;durP1;ratioP1;P1;durP2;ratioP2;P2;SDS_P1;SDS_P2;PMS_P1;PMS_P2;Temp;Humidity;BMP_temperature;BMP_pressure;BME280_temperature;BME280_humidity;BME280_pressure;Samples;Min_cycle;Max_cycle;Signal;HPM_P1;HPM_P2
2021/04/01 00:00:14;;;;;;;0.10;0.10;;;12.90;58.80;;;;;;4964362;28;20035;-86
2021/04/01 00:02:40;;;;;;;0.00;0.00;;;12.50;59.20;;;;;;4968664;28;20030;-85
2021/04/01 00:05:08;;;;;;;0.00;0.00;;;12.60;59.50;;;;;;4970301;28;20449;-85
2021/04/01 00:07:34;;;;;;;0.20;0.20;;;12.50;59.80;;;;;;4967920;28;20038;-85
2021/04/01 00:10:00;;;;;;;0.07;0.07;;;12.80;59.90;;;;;;4970506;28;20049;-86
2021/04/01 00:12:26;;;;;;;0.65;0.57;;;12.60;73.60;;;;;;4968939;28;20049;-86
2021/04/01 00:14:52;;;;;;;1.25;0.70;;;12.50;60.60;;;;;;4970834;28;20568;-85
2021/04/01 00:17:18;;;;;;;0.00;0.00;;;12.20;61.50;;;;;;4968134;28;20028;-85
2021/04/01 00:19:43;;;;;;;0.00;0.00;;;12.40;61.30;;;;;;4965454;28;20117;-86
2021/04/01 00:22:09;;;;;;;0.20;0.20;;;12.20;61.60;;;;;;4965954;28;20027;-86
2021/04/01 00:24:35;;;;;;;0.00;0.00;;;12.20;62.40;;;;;;4962927;28;20050;-85
2021/04/01 00:27:01;;;;;;;0.17;0.17;;;12.00;65.00;;;;;;4972571;28;20035;-85
2021/04/01 00:29:27;;;;;;;0.23;0.23;;;12.00;63.40;;;;;;4963678;28;20051;-85
2021/04/01 00:31:53;;;;;;;0.10;0.10;;;12.00;63.40;;;;;;4969223;28;20273;-85
2021/04/01 00:34:20;;;;;;;0.32;0.32;;;12.00;64.60;;;;;;4968910;28;20084;-86
2021/04/01 00:36:45;;;;;;;2.03;0.75;;;11.90;65.00;;;;;;4967127;28;20080;-86
2021/04/01 00:39:12;;;;;;;0.13;0.13;;;12.00;63.80;;;;;;4959149;28;20672;-86
2021/04/01 00:41:41;;;;;;;1.13;1.08;;;11.90;64.30;;;;;;4961587;28;20066;-86
2021/04/01 00:44:07;;;;;;;0.10;0.10;;;12.00;63.80;;;;;;4966053;28;20088;-86
2021/04/01 00:46:34;;;;;;;0.00;0.00;;;11.90;63.50;;;;;;4965455;28;20027;-86
2021/04/01 00:49:00;;;;;;;0.35;0.22;;;11.70;64.80;;;;;;4971774;28;20093;-85
2021/04/01 00:51:26;;;;;;;1.30;0.55;;;11.80;64.50;;;;;;4969947;28;20074;-86
2021/04/01 00:53:51;;;;;;;0.00;0.00;;;11.80;64.90;;;;;;4970161;28;20034;-86
2021/04/01 00:56:18;;;;;;;1.45;0.30;;;11.80;65.40;;;;;;4966031;28;20474;-86
2021/04/01 00:58:44;;;;;;;0.00;0.00;;;11.80;64.60;;;;;;4970411;28;20034;-86
2021/04/01 01:03:42;;;;;;;0.25;0.20;;;11.70;66.90;;;;;;4970909;28;20134;-86
2021/04/01 01:06:07;;;;;;;0.30;0.30;;;11.50;66.30;;;;;;4963015;28;20111;-86
2021/04/01 01:08:33;;;;;;;0.13;0.05;;;11.50;66.30;;;;;;4970799;28;20058;-86
2021/04/01 01:10:59;;;;;;;0.10;0.10;;;11.70;65.00;;;;;;4968868;28;20046;-86
2021/04/01 01:13:25;;;;;;;0.08;0.08;;;11.70;65.90;;;;;;4968989;28;20102;-86
2021/04/01 01:15:51;;;;;;;0.10;0.10;;;11.60;65.90;;;;;;4971143;28;20850;-85
2021/04/01 01:18:16;;;;;;;0.47;0.47;;;11.40;67.50;;;;;;4961990;28;20043;-85
2021/04/01 01:20:43;;;;;;;0.25;0.22;;;11.20;67.50;;;;;;4961642;28;20213;-85
2021/04/01 01:23:10;;;;;;;0.70;0.28;;;11.30;67.80;;;;;;4964455;28;20031;-85
2021/04/01 01:25:36;;;;;;;1.65;0.65;;;11.30;67.60;;;;;;4968158;28;20030;-85
2021/04/01 01:28:04;;;;;;;0.30;0.30;;;11.10;68.10;;;;;;4966088;28;20854;-86
2021/04/01 01:30:32;;;;;;;0.32;0.05;;;11.20;68.10;;;;;;4965605;28;20047;-85
2021/04/01 01:33:01;;;;;;;0.30;0.30;;;11.10;69.10;;;;;;4968162;28;20727;-85
2021/04/01 01:35:29;;;;;;;0.08;0.08;;;10.90;68.80;;;;;;4969415;28;20046;-85
2021/04/01 01:37:58;;;;;;;0.10;0.10;;;10.90;68.60;;;;;;4963455;28;20487;-84
2021/04/01 01:40:26;;;;;;;0.65;0.45;;;11.10;69.00;;;;;;4966382;28;20724;-84
2021/04/01 01:42:54;;;;;;;0.00;0.00;;;11.00;69.30;;;;;;4967002;28;20442;-85
2021/04/01 01:45:20;;;;;;;0.22;0.22;;;11.00;69.70;;;;;;4968484;28;20034;-85
2021/04/01 01:47:47;;;;;;;0.03;0.03;;;10.90;69.50;;;;;;4968566;28;20043;-85
2021/04/01 01:50:14;;;;;;;1.27;0.85;;;10.70;69.70;;;;;;4971276;28;20031;-84
2021/04/01 01:52:41;;;;;;;0.00;0.00;;;11.00;68.60;;;;;;4965106;28;20110;-84
2021/04/01 01:55:11;;;;;;;0.40;0.40;;;11.10;68.00;;;;;;4971340;28;20026;-84
2021/04/01 01:57:37;;;;;;;0.20;0.20;;;11.20;68.10;;;;;;4963147;28;20031;-85
2021/04/01 02:00:20;;;;;;;0.70;0.52;;;11.00;69.30;;;;;;4965184;28;20035;-84
2021/04/01 02:02:53;;;;;;;0.00;0.00;;;10.80;70.90;;;;;;4959701;28;20522;-84
2021/04/01 02:05:21;;;;;;;0.00;0.00;;;10.70;69.80;;;;;;4963821;28;20025;-85
2021/04/01 02:07:47;;;;;;;0.08;0.08;;;10.60;70.70;;;;;;4963641;28;20043;-85
2021/04/01 02:10:15;;;;;;;0.10;0.10;;;10.90;69.90;;;;;;4963229;28;20027;-85
2021/04/01 02:12:43;;;;;;;0.10;0.10;;;10.80;83.30;;;;;;4962200;28;20947;-84
2021/04/01 02:15:14;;;;;;;0.10;0.10;;;10.80;69.60;;;;;;4958024;28;20023;-84
2021/04/01 02:17:40;;;;;;;0.20;0.20;;;10.70;70.30;;;;;;4969737;28;20050;-84
2021/04/01 02:20:07;;;;;;;0.00;0.00;;;10.80;70.40;;;;;;4965232;28;20408;-84
2021/04/01 02:22:32;;;;;;;0.10;0.10;;;10.80;70.20;;;;;;4962518;28;20038;-84
2021/04/01 02:24:58;;;;;;;0.20;0.20;;;10.70;70.10;;;;;;4969408;28;20039;-84
2021/04/01 02:27:25;;;;;;;0.68;0.25;;;10.60;71.00;;;;;;4961435;28;20509;-84
2021/04/01 02:29:51;;;;;;;0.20;0.20;;;10.60;71.90;;;;;;4967780;28;20690;-84
2021/04/01 02:32:17;;;;;;;0.00;0.00;;;10.50;70.90;;;;;;4967302;28;20034;-84
2021/04/01 02:34:43;;;;;;;0.00;0.00;;;10.50;70.80;;;;;;4956723;28;20565;-84
2021/04/01 02:37:09;;;;;;;0.10;0.10;;;10.50;70.80;;;;;;4956516;28;20027;-84
2021/04/01 02:39:35;;;;;;;0.10;0.10;;;10.50;71.90;;;;;;4963080;28;20038;-84
2021/04/01 02:42:01;;;;;;;0.20;0.20;;;10.30;72.70;;;;;;4968789;28;20030;-84
2021/04/01 02:44:26;;;;;;;2.30;1.17;;;10.50;71.60;;;;;;4968330;28;20058;-85
2021/04/01 02:46:52;;;;;;;0.50;0.50;;;10.40;72.00;;;;;;4962728;28;20035;-85
2021/04/01 02:49:18;;;;;;;0.00;0.00;;;10.60;71.40;;;;;;4965343;28;20038;-84
2021/04/01 02:51:44;;;;;;;0.08;0.08;;;10.30;72.10;;;;;;4959701;28;20058;-85
2021/04/01 02:54:09;;;;;;;0.00;0.00;;;10.30;72.70;;;;;;4964273;28;20491;-84
2021/04/01 02:56:35;;;;;;;0.00;0.00;;;10.30;71.10;;;;;;4966994;28;20665;-84
2021/04/01 02:59:02;;;;;;;0.10;0.10;;;10.40;73.50;;;;;;4965400;28;20026;-83
2021/04/01 03:01:27;;;;;;;0.00;0.00;;;10.20;73.20;;;;;;4971804;28;20273;-82
2021/04/01 03:03:55;;;;;;;0.00;0.00;;;10.10;73.50;;;;;;4962147;28;20407;-83
2021/04/01 03:06:21;;;;;;;;;;;10.00;74.20;;;;;;4964870;28;20077;-82
2021/04/01 03:08:47;;;;;;;0.35;0.35;;;10.00;73.80;;;;;;4961737;28;19945;-82
2021/04/01 03:11:13;;;;;;;0.10;0.10;;;9.90;74.20;;;;;;4968245;28;20030;-83
2021/04/01 03:13:39;;;;;;;1.33;0.57;;;10.00;73.80;;;;;;4968602;28;20022;-83
2021/04/01 03:16:05;;;;;;;0.13;0.10;;;9.80;74.80;;;;;;4969146;28;20034;-84
2021/04/01 03:18:31;;;;;;;0.00;0.00;;;9.80;75.00;;;;;;4967598;28;20034;-84
2021/04/01 03:20:57;;;;;;;0.10;0.10;;;9.80;75.20;;;;;;4966916;28;20679;-84
2021/04/01 03:23:23;;;;;;;0.10;0.10;;;9.80;75.70;;;;;;4966891;28;20031;-84
2021/04/01 03:25:48;;;;;;;6.65;1.73;;;9.70;75.40;;;;;;4965930;28;20023;-85
2021/04/01 03:28:16;;;;;;;0.10;0.10;;;9.60;76.60;;;;;;4961161;28;20082;-85
2021/04/01 03:33:36;;;;;;;0.10;0.10;;;9.30;78.60;;;;;;4956666;28;20050;-85
2021/04/01 03:36:03;;;;;;;0.20;0.20;;;9.30;79.60;;;;;;4966953;28;20031;-85
2021/04/01 03:38:29;;;;;;;0.28;0.28;;;9.10;79.20;;;;;;4967240;28;20115;-84
2021/04/01 03:40:55;;;;;;;0.10;0.10;;;9.20;79.50;;;;;;4967971;28;20035;-84
2021/04/01 03:43:23;;;;;;;0.10;0.10;;;9.20;79.90;;;;;;4962554;28;20733;-84
2021/04/01 03:45:49;;;;;;;0.10;0.10;;;9.20;80.10;;;;;;4961154;28;20102;-84
2021/04/01 03:48:15;;;;;;;0.10;0.10;;;9.20;79.60;;;;;;4957975;28;20451;-84
2021/04/01 03:50:41;;;;;;;2.05;0.50;;;9.10;79.90;;;;;;4958386;28;20543;-85
2021/04/01 03:53:07;;;;;;;0.00;0.00;;;9.10;80.70;;;;;;4967582;28;20034;-85
2021/04/01 03:58:07;;;;;;;0.43;0.30;;;8.90;81.40;;;;;;4966182;28;20031;-84
2021/04/01 04:00:35;;;;;;;1.35;0.63;;;8.80;89.30;;;;;;4967096;28;20073;-85
2021/04/01 04:10:57;;;;;;;0.22;0.22;;;8.90;82.80;;;;;;4956124;28;20518;-85
2021/04/01 04:13:32;;;;;;;0.20;0.20;;;8.70;84.20;;;;;;4966204;28;20022;-84
2021/04/01 04:15:59;;;;;;;0.10;0.10;;;8.50;85.10;;;;;;4958677;28;20073;-84
2021/04/01 04:18:24;;;;;;;0.20;0.20;;;8.40;85.10;;;;;;4958696;28;20110;-84
2021/04/01 04:20:50;;;;;;;0.10;0.10;;;8.50;85.00;;;;;;4969213;28;20550;-84
2021/04/01 04:23:18;;;;;;;0.17;0.17;;;8.40;85.50;;;;;;4964736;28;20169;-84
2021/04/01 04:25:44;;;;;;;2.90;1.65;;;8.50;85.40;;;;;;4963240;28;20506;-84
2021/04/01 04:28:21;;;;;;;0.73;0.60;;;8.50;85.60;;;;;;4961676;28;20030;-84
2021/04/01 04:30:48;;;;;;;0.52;0.30;;;8.40;85.30;;;;;;4961897;28;20042;-84
2021/04/01 04:33:13;;;;;;;0.10;0.10;;;8.40;86.60;;;;;;4967380;28;20711;-84
2021/04/01 04:35:39;;;;;;;0.40;0.40;;;8.30;86.40;;;;;;4965491;28;20039;-84
2021/04/01 04:38:05;;;;;;;0.32;0.32;;;8.50;87.20;;;;;;4971224;28;20031;-83
2021/04/01 04:40:31;;;;;;;0.00;0.00;;;8.40;86.20;;;;;;4961437;28;20498;-84
2021/04/01 04:42:57;;;;;;;0.35;0.25;;;8.20;87.30;;;;;;4970991;28;20495;-86
2021/04/01 04:45:23;;;;;;;0.17;0.17;;;8.40;87.40;;;;;;4963446;28;20035;-84
2021/04/01 04:47:49;;;;;;;1.85;0.30;;;8.40;86.60;;;;;;4963638;28;20036;-84
2021/04/01 04:50:15;;;;;;;0.20;0.20;;;8.30;87.30;;;;;;4964794;28;20026;-84
2021/04/01 04:52:41;;;;;;;0.70;0.68;;;8.40;88.30;;;;;;4965313;28;20081;-84
2021/04/01 04:55:10;;;;;;;0.30;0.30;;;8.30;86.90;;;;;;4972126;28;20045;-84
2021/04/01 04:57:42;;;;;;;0.65;0.28;;;8.40;89.10;;;;;;4971513;28;20029;-83
2021/04/01 05:05:28;;;;;;;0.55;0.55;;;8.30;87.80;;;;;;4960744;28;20038;-83
2021/04/01 05:07:55;;;;;;;4.75;1.08;;;8.40;87.50;;;;;;4960827;28;20026;-83
2021/04/01 05:10:20;;;;;;;0.10;0.10;;;8.20;88.50;;;;;;4966355;28;20031;-83
2021/04/01 05:12:58;;;;;;;0.10;0.10;;;8.20;87.50;;;;;;4964066;28;20042;-83
2021/04/01 05:15:24;;;;;;;0.30;0.30;;;8.20;88.50;;;;;;4971284;28;20025;-83
2021/04/01 05:17:50;;;;;;;0.13;0.13;;;8.30;87.40;;;;;;4970240;28;20042;-82
2021/04/01 05:20:17;;;;;;;0.15;0.15;;;7.90;89.00;;;;;;4967580;28;20105;-83
2021/04/01 05:22:50;;;;;;;0.13;0.13;;;8.00;89.50;;;;;;4970395;28;20041;-82
2021/04/01 05:25:17;;;;;;;0.45;0.43;;;8.00;89.30;;;;;;4968537;28;20125;-82
2021/04/01 05:27:54;;;;;;;;;;;7.80;89.80;;;;;;4965419;28;20038;-83
2021/04/01 05:30:21;;;;;;;0.10;0.10;;;7.70;90.40;;;;;;4960806;28;19997;-83
2021/04/01 05:32:47;;;;;;;0.10;0.10;;;7.90;90.20;;;;;;4963002;28;20031;-84
2021/04/01 05:35:15;;;;;;;0.55;0.55;;;7.90;90.20;;;;;;4969280;28;20031;-85
2021/04/01 05:37:42;;;;;;;0.10;0.10;;;7.80;90.70;;;;;;4962803;28;20031;-87
2021/04/01 05:40:11;;;;;;;0.10;0.10;;;7.50;91.20;;;;;;4962276;28;20037;-86
2021/04/01 05:42:45;;;;;;;0.10;0.10;;;7.70;97.30;;;;;;4958812;28;20032;-85
2021/04/01 05:45:25;;;;;;;0.75;0.75;;;7.80;91.10;;;;;;4946404;28;20109;-85
2021/04/01 05:48:01;;;;;;;0.10;0.10;;;7.80;91.30;;;;;;4958717;28;20037;-85
2021/04/01 05:50:46;;;;;;;0.10;0.10;;;7.90;91.30;;;;;;4963890;28;20015;-85
2021/04/01 05:56:42;;;;;;;0.52;0.50;;;8.20;91.00;;;;;;4965685;28;20126;-85
2021/04/01 05:59:29;;;;;;;0.10;0.10;;;8.30;91.40;;;;;;4955915;28;20038;-85
2021/04/01 06:04:51;;;;;;;0.10;0.10;;;8.70;90.70;;;;;;4968678;28;20042;-85
2021/04/01 06:07:31;;;;;;;0.30;0.30;;;8.90;91.00;;;;;;4968023;28;20137;-85
2021/04/01 06:10:03;;;;;;;0.05;0.05;;;9.00;90.30;;;;;;4967619;28;20051;-85
2021/04/01 06:12:34;;;;;;;0.10;0.10;;;9.00;90.50;;;;;;4950627;28;20027;-85
2021/04/01 06:15:07;;;;;;;0.10;0.10;;;9.10;90.50;;;;;;4969258;28;20027;-85
2021/04/01 06:17:36;;;;;;;0.22;0.22;;;9.10;90.70;;;;;;4969334;28;20371;-85
2021/04/01 06:20:07;;;;;;;0.28;0.28;;;9.30;90.90;;;;;;4969204;28;20062;-85
2021/04/01 06:22:40;;;;;;;0.10;0.10;;;9.20;90.70;;;;;;4969150;28;20027;-84
2021/04/01 06:25:12;;;;;;;0.10;0.10;;;9.40;90.60;;;;;;4969508;28;20106;-85
2021/04/01 06:27:50;;;;;;;0.13;0.13;;;9.60;90.90;;;;;;4968746;28;20037;-85
2021/04/01 06:30:26;;;;;;;0.43;0.43;;;9.70;90.70;;;;;;4959485;28;20154;-85
2021/04/01 06:33:06;;;;;;;0.20;0.20;;;10.00;90.30;;;;;;4961645;28;20023;-84
2021/04/01 06:35:45;;;;;;;0.10;0.10;;;10.10;90.00;;;;;;4959269;28;20061;-85
2021/04/01 06:41:00;;;;;;;0.20;0.20;;;10.50;87.90;;;;;;4968967;28;20042;-86
2021/04/01 06:43:52;;;;;;;2.72;1.05;;;10.90;86.40;;;;;;4969221;28;20031;-85
2021/04/01 06:46:20;;;;;;;3.50;0.98;;;10.70;87.40;;;;;;4968689;28;20037;-85
2021/04/01 06:49:19;;;;;;;0.00;0.00;;;11.40;87.50;;;;;;4968299;28;20185;-85
2021/04/01 06:51:52;;;;;;;0.17;0.17;;;11.60;85.00;;;;;;4966999;28;20114;-85
2021/04/01 06:57:48;;;;;;;0.20;0.20;;;12.50;84.60;;;;;;4967337;28;20137;-85
2021/04/01 07:05:48;;;;;;;0.05;0.05;;;13.20;81.80;;;;;;4969086;28;20031;-86
2021/04/01 07:08:26;;;;;;;0.30;0.30;;;13.80;80.90;;;;;;4966556;28;20113;-86
2021/04/01 07:11:05;;;;;;;1.45;0.73;;;13.70;79.60;;;;;;4968599;28;20023;-86
2021/04/01 07:13:45;;;;;;;0.40;0.40;;;14.00;80.20;;;;;;4967462;28;20029;-86
2021/04/01 07:17:08;;;;;;;0.00;0.00;;;14.20;77.00;;;;;;4968585;28;20026;-85
2021/04/01 07:44:51;;;;;;;0.03;0.03;;;17.40;69.10;;;;;;4957400;28;20897;-82
2021/04/01 07:47:23;;;;;;;;;;;17.50;67.70;;;;;;4968726;28;20208;-82
2021/04/01 07:49:54;;;;;;;0.10;0.10;;;18.40;63.50;;;;;;4967971;28;20436;-82
2021/04/01 07:52:32;;;;;;;0.20;0.20;;;18.70;65.50;;;;;;4967977;28;20509;-82
2021/04/01 07:58:09;;;;;;;0.10;0.10;;;18.50;65.90;;;;;;4968640;28;20521;-82
2021/04/01 08:00:49;;;;;;;0.00;0.00;;;18.50;64.80;;;;;;4966590;28;20159;-83
2021/04/01 08:05:59;;;;;;;0.30;0.30;;;19.00;63.40;;;;;;4972490;28;20053;-82
2021/04/01 08:08:27;;;;;;;0.25;0.25;;;19.70;61.50;;;;;;4970720;28;20203;-82
2021/04/01 08:11:06;;;;;;;0.00;0.00;;;20.20;59.80;;;;;;4971708;28;20026;-82
2021/04/01 08:13:40;;;;;;;0.05;0.05;;;20.30;58.10;;;;;;4971523;28;20170;-82
2021/04/01 08:16:12;;;;;;;0.03;0.03;;;20.30;57.40;;;;;;4972143;28;20037;-82
2021/04/01 08:18:41;;;;;;;0.35;0.35;;;20.70;66.60;;;;;;4970243;28;20030;-83
2021/04/01 08:21:11;;;;;;;3.60;0.98;;;20.80;58.40;;;;;;4969942;28;20085;-82
2021/04/01 08:23:46;;;;;;;0.10;0.10;;;21.40;55.90;;;;;;4971941;28;20034;-83
2021/04/01 08:26:23;;;;;;;0.00;0.00;;;21.00;58.20;;;;;;4970342;28;20386;-82
2021/04/01 08:36:52;;;;;;;0.00;0.00;;;22.80;50.50;;;;;;4971292;28;20023;-82
2021/04/01 08:39:22;;;;;;;0.00;0.00;;;22.20;46.20;;;;;;4971397;28;20027;-82
2021/04/01 08:42:08;;;;;;;0.10;0.10;;;23.60;48.00;;;;;;4968922;28;20044;-82
2021/04/01 08:44:56;;;;;;;0.00;0.00;;;23.80;45.50;;;;;;4959673;28;20038;-82
2021/04/01 08:47:50;;;;;;;0.00;0.00;;;23.80;44.10;;;;;;4971299;28;20054;-82
2021/04/01 08:50:33;;;;;;;0.10;0.10;;;25.10;43.70;;;;;;4957422;28;20054;-82
2021/04/01 08:53:57;;;;;;;0.10;0.10;;;26.00;41.30;;;;;;4968792;28;20027;-82
2021/04/01 08:56:50;;;;;;;0.00;0.00;;;25.80;38.50;;;;;;4931797;29;20016;-82
2021/04/01 08:59:31;;;;;;;0.00;0.00;;;27.60;34.60;;;;;;4927095;29;20062;-82
2021/04/01 09:01:59;;;;;;;0.10;0.10;;;28.20;31.60;;;;;;4940313;29;20035;-82
2021/04/01 09:04:35;;;;;;;0.57;0.57;;;26.70;37.90;;;;;;4914246;29;20040;-82
2021/04/01 09:07:11;;;;;;;0.73;0.35;;;27.60;35.90;;;;;;4939869;29;20440;-82
2021/04/01 09:09:39;;;;;;;0.03;0.03;;;27.60;34.60;;;;;;4944170;29;20032;-83
2021/04/01 09:12:45;;;;;;;0.00;0.00;;;27.50;35.50;;;;;;4931108;29;20507;-82
2021/04/01 09:15:37;;;;;;;0.43;0.10;;;29.00;30.70;;;;;;4914608;29;20115;-82
2021/04/01 09:18:05;;;;;;;0.08;0.08;;;29.70;28.30;;;;;;4932431;29;20067;-82
2021/04/01 09:20:34;;;;;;;0.17;0.17;;;27.70;33.20;;;;;;4922358;29;20040;-83
2021/04/01 09:23:10;;;;;;;0.10;0.10;;;28.60;29.70;;;;;;4922361;29;20087;-82
2021/04/01 09:25:46;;;;;;;0.00;0.00;;;27.00;33.50;;;;;;4919254;29;20026;-82
2021/04/01 09:28:14;;;;;;;0.20;0.20;;;26.60;33.90;;;;;;4948015;29;20031;-82
2021/04/01 09:30:43;;;;;;;0.00;0.00;;;28.20;28.70;;;;;;4941284;28;20157;-82
2021/04/01 09:33:29;;;;;;;0.05;0.05;;;27.60;29.60;;;;;;4969566;28;20030;-82
2021/04/01 09:36:20;;;;;;;0.00;0.00;;;28.60;26.70;;;;;;4958187;28;20027;-82
2021/04/01 09:39:12;;;;;;;0.10;0.10;;;30.70;25.30;;;;;;4969760;28;20166;-82
2021/04/01 09:41:41;;;;;;;1.17;0.63;;;29.10;25.90;;;;;;4968368;28;20058;-82
2021/04/01 09:44:12;;;;;;;0.10;0.10;;;28.10;29.40;;;;;;4968931;28;20026;-82
2021/04/01 09:46:57;;;;;;;0.00;0.00;;;28.90;27.80;;;;;;4970328;28;20118;-82
2021/04/01 09:49:55;;;;;;;0.10;0.10;;;28.50;28.50;;;;;;4967975;28;20110;-82
2021/04/01 09:52:30;;;;;;;0.10;0.10;;;29.50;28.20;;;;;;4962623;28;20045;-82
2021/04/01 09:55:16;;;;;;;0.50;0.28;;;30.10;25.30;;;;;;4967809;28;20146;-82
2021/04/01 09:57:47;;;;;;;0.20;0.20;;;31.30;21.40;;;;;;4968682;28;20047;-82
2021/04/01 10:03:30;;;;;;;0.10;0.10;;;31.30;19.70;;;;;;4969860;28;20402;-82
2021/04/01 10:05:57;;;;;;;0.00;0.00;;;33.80;14.10;;;;;;4963537;28;20410;-82
2021/04/01 10:08:28;;;;;;;1.30;0.55;;;32.30;17.90;;;;;;4968974;28;20375;-82
2021/04/01 10:11:16;;;;;;;0.20;0.20;;;32.80;13.40;;;;;;4969274;28;20053;-82
2021/04/01 10:13:44;;;;;;;0.10;0.10;;;31.60;15.10;;;;;;4956256;28;20031;-82
2021/04/01 10:16:24;;;;;;;0.00;0.00;;;31.90;14.50;;;;;;4969418;28;20019;-82
2021/04/01 10:18:55;;;;;;;0.00;0.00;;;33.80;9.90;;;;;;4955120;28;20583;-81
2021/04/01 10:21:22;;;;;;;0.10;0.10;;;30.70;12.40;;;;;;4952141;28;20038;-82
2021/04/01 10:23:54;;;;;;;0.00;0.00;;;34.10;7.80;;;;;;4968300;28;20066;-82
2021/04/01 10:26:34;;;;;;;0.05;0.05;;;30.30;14.70;;;;;;4968629;28;20038;-82
2021/04/01 10:29:18;;;;;;;0.90;0.45;;;33.30;11.60;;;;;;4968431;28;20871;-82
2021/04/01 10:31:51;;;;;;;0.22;0.22;;;30.90;11.70;;;;;;4966161;28;20033;-82
2021/04/01 10:34:39;;;;;;;0.00;0.00;;;32.60;11.30;;;;;;4969341;28;20081;-82
2021/04/01 10:37:09;;;;;;;0.10;0.10;;;33.70;11.80;;;;;;4967246;28;20438;-82
2021/04/01 10:39:39;;;;;;;0.47;0.47;;;31.60;12.90;;;;;;4967582;28;20026;-82
2021/04/01 10:42:09;;;;;;;0.25;0.10;;;32.90;11.70;;;;;;4968462;28;20046;-83
2021/04/01 10:44:38;;;;;;;2.00;0.77;;;32.70;9.60;;;;;;4967208;28;20038;-82
2021/04/01 10:47:06;;;;;;;14.25;0.52;;;31.50;15.10;;;;;;4968057;28;20126;-82
2021/04/01 10:49:36;;;;;;;0.00;0.00;;;34.80;8.20;;;;;;4967428;28;20086;-83
2021/04/01 10:52:07;;;;;;;0.35;0.35;;;34.30;5.00;;;;;;4967658;28;20050;-83
2021/04/01 10:54:46;;;;;;;1.25;0.57;;;30.20;12.60;;;;;;4968436;28;20402;-83
2021/04/01 10:57:28;;;;;;;0.10;0.10;;;29.90;11.50;;;;;;4966843;28;20077;-83
2021/04/01 11:00:00;;;;;;;0.05;0.05;;;32.20;12.10;;;;;;4968240;28;20035;-82
2021/04/01 11:02:50;;;;;;;2.75;1.17;;;32.70;6.90;;;;;;4967197;28;20743;-83
2021/04/01 11:05:21;;;;;;;0.20;0.20;;;29.10;13.00;;;;;;4967896;28;20061;-83
2021/04/01 11:07:59;;;;;;;0.00;0.00;;;30.30;11.20;;;;;;4967835;28;20121;-83
2021/04/01 11:10:30;;;;;;;0.00;0.00;;;29.00;14.30;;;;;;4955178;28;20023;-82
2021/04/01 11:12:59;;;;;;;0.10;0.10;;;30.60;15.00;;;;;;4966444;28;20443;-83
2021/04/01 11:15:35;;;;;;;0.00;0.00;;;29.60;12.50;;;;;;4968776;28;20102;-83
2021/04/01 11:18:18;;;;;;;0.20;0.20;;;28.80;13.40;;;;;;4966480;28;20089;-83
2021/04/01 11:20:52;;;;;;;0.10;0.10;;;30.40;15.00;;;;;;4968443;28;20518;-82
2021/04/01 11:23:25;;;;;;;1.77;0.50;;;32.70;12.10;;;;;;4966943;28;20025;-82
2021/04/01 11:25:59;;;;;;;0.20;0.20;;;29.40;12.50;;;;;;4968389;28;20038;-82
2021/04/01 11:28:44;;;;;;;0.22;0.20;;;32.40;12.10;;;;;;4967127;28;20098;-81
2021/04/01 11:31:31;;;;;;;0.20;0.20;;;32.40;12.80;;;;;;4959871;28;20038;-81
2021/04/01 11:34:00;;;;;;;0.10;0.10;;;31.90;13.20;;;;;;4961317;28;20254;-81
2021/04/01 11:36:40;;;;;;;0.00;0.00;;;31.40;11.00;;;;;;4963606;28;20042;-81
2021/04/01 11:39:37;;;;;;;0.10;0.10;;;31.90;12.50;;;;;;4972717;28;20023;-81
2021/04/01 11:42:09;;;;;;;1.17;0.55;;;29.20;13.60;;;;;;4969406;28;20043;-81
2021/04/01 11:44:46;;;;;;;0.00;0.00;;;25.80;18.30;;;;;;4966935;28;20039;-81
2021/04/01 11:47:24;;;;;;;1.20;0.95;;;25.50;20.00;;;;;;4971784;28;20062;-81
2021/04/01 11:49:52;;;;;;;0.00;0.00;;;25.40;19.60;;;;;;4969903;28;20086;-81
2021/04/01 11:52:22;;;;;;;0.98;0.70;;;25.30;20.10;;;;;;4968930;28;20517;-81
2021/04/01 11:54:53;;;;;;;0.00;0.00;;;24.80;21.50;;;;;;4965733;28;20054;-81
2021/04/01 11:57:30;;;;;;;0.03;0.03;;;25.10;21.00;;;;;;4971247;28;20402;-81
2021/04/01 12:00:12;;;;;;;0.20;0.20;;;24.80;21.50;;;;;;4967515;28;20041;-80
2021/04/01 12:02:55;;;;;;;0.00;0.00;;;24.30;22.70;;;;;;4965141;28;20031;-81
2021/04/01 12:05:24;;;;;;;0.00;0.00;;;24.50;23.80;;;;;;4966085;28;20026;-81
2021/04/01 12:07:53;;;;;;;0.35;0.35;;;24.60;23.20;;;;;;4960896;28;20034;-81
2021/04/01 12:10:22;;;;;;;0.40;0.08;;;24.70;22.60;;;;;;4969326;28;20775;-80
2021/04/01 12:12:58;;;;;;;0.00;0.00;;;24.30;22.40;;;;;;4965272;28;20113;-81
2021/04/01 12:15:40;;;;;;;0.65;0.40;;;24.40;23.60;;;;;;4971617;28;20111;-81
2021/04/01 12:18:09;;;;;;;0.00;0.00;;;24.60;24.70;;;;;;4971531;28;20042;-81
2021/04/01 12:20:38;;;;;;;0.00;0.00;;;24.40;23.30;;;;;;4968467;28;20444;-81
2021/04/01 12:23:14;;;;;;;0.00;0.00;;;24.20;23.10;;;;;;4971518;28;20047;-80
2021/04/01 12:25:45;;;;;;;4.78;0.20;;;24.10;14.60;;;;;;4942747;28;20063;-81
2021/04/01 12:28:25;;;;;;;0.28;0.28;;;24.40;23.90;;;;;;4959508;28;20035;-81
2021/04/01 12:30:52;;;;;;;0.00;0.00;;;24.30;23.30;;;;;;4963709;28;20046;-81
2021/04/01 12:33:25;;;;;;;0.82;0.82;;;24.30;23.80;;;;;;4969309;28;20396;-81
2021/04/01 12:35:57;;;;;;;2.17;0.68;;;24.00;23.50;;;;;;4972940;28;20022;-81
2021/04/01 12:38:31;;;;;;;0.00;0.00;;;23.70;23.00;;;;;;4971780;28;20038;-81
2021/04/01 12:41:25;;;;;;;0.00;0.00;;;23.70;23.30;;;;;;4965921;28;20854;-81
2021/04/01 12:43:52;;;;;;;0.00;0.00;;;23.60;23.70;;;;;;4969664;28;20031;-81
2021/04/01 12:46:20;;;;;;;0.10;0.10;;;23.80;23.30;;;;;;4972726;28;20041;-81
2021/04/01 12:48:54;;;;;;;0.68;0.50;;;23.50;24.00;;;;;;4967177;28;20093;-81
2021/04/01 12:51:22;;;;;;;0.05;0.05;;;23.60;23.50;;;;;;4967180;28;20043;-81
2021/04/01 12:54:08;;;;;;;0.00;0.00;;;23.80;23.40;;;;;;4967519;28;20495;-80
2021/04/01 12:56:48;;;;;;;0.35;0.30;;;23.90;23.20;;;;;;4981377;28;20030;-81
2021/04/01 12:59:20;;;;;;;0.20;0.20;;;23.70;23.30;;;;;;4962699;28;20031;-81
2021/04/01 13:02:06;;;;;;;0.52;0.32;;;23.70;23.30;;;;;;4959373;28;20115;-80
2021/04/01 13:04:34;;;;;;;0.57;0.45;;;23.50;23.90;;;;;;4965513;28;20774;-81
2021/04/01 13:07:22;;;;;;;1.65;1.00;;;23.40;24.00;;;;;;4970622;28;20126;-81
2021/04/01 13:09:52;;;;;;;0.90;0.60;;;23.30;23.90;;;;;;4970268;28;20487;-81
2021/04/01 13:12:22;;;;;;;0.00;0.00;;;23.30;23.80;;;;;;4969888;28;20030;-81
2021/04/01 13:14:51;;;;;;;0.50;0.35;;;23.40;23.90;;;;;;4969780;28;20027;-81
2021/04/01 13:17:18;;;;;;;0.00;0.00;;;23.50;23.30;;;;;;4968356;28;20035;-81
2021/04/01 13:19:49;;;;;;;5.28;1.77;;;23.50;24.60;;;;;;4970065;28;20380;-81
2021/04/01 13:22:44;;;;;;;0.32;0.32;;;23.60;25.60;;;;;;4968771;28;20041;-81
2021/04/01 13:25:14;;;;;;;0.30;0.30;;;23.60;24.40;;;;;;4970053;28;20026;-81
2021/04/01 13:27:45;;;;;;;3.20;0.63;;;23.70;24.30;;;;;;4969920;28;20026;-81
2021/04/01 13:30:14;;;;;;;0.60;0.60;;;23.40;24.10;;;;;;4969423;28;20038;-80
2021/04/01 13:35:21;;;;;;;0.10;0.10;;;23.30;25.30;;;;;;4967369;28;20035;-81
2021/04/01 13:38:10;;;;;;;0.00;0.00;;;23.40;25.10;;;;;;4970160;28;20031;-81
2021/04/01 13:40:42;;;;;;;7.55;1.48;;;23.50;24.50;;;;;;4966016;28;20278;-81
2021/04/01 13:43:12;;;;;;;0.20;0.20;;;23.40;24.80;;;;;;4969886;28;20053;-81
2021/04/01 13:45:55;;;;;;;2.00;1.27;;;23.40;24.80;;;;;;4962842;28;20487;-81
2021/04/01 13:48:27;;;;;;;0.10;0.10;;;23.30;26.00;;;;;;4959067;28;20519;-81
2021/04/01 13:51:08;;;;;;;2.42;0.60;;;23.40;25.40;;;;;;4974817;28;20626;-81
2021/04/01 13:53:56;;;;;;;4.47;0.38;;;23.30;25.60;;;;;;4959541;28;20479;-81
2021/04/01 13:56:30;;;;;;;0.08;0.08;;;23.40;25.50;;;;;;4960785;28;20062;-81
2021/04/01 14:10:22;;;;;;;0.15;0.15;;;23.10;26.50;;;;;;4961204;28;20046;-81
2021/04/01 14:12:52;;;;;;;0.10;0.10;;;23.10;26.60;;;;;;4961476;28;20034;-81
2021/04/01 14:15:19;;;;;;;2.60;0.98;;;23.00;37.50;;;;;;4964413;28;20027;-81
2021/04/01 14:17:48;;;;;;;0.52;0.43;;;23.00;26.70;;;;;;4956875;28;20029;-81
2021/04/01 14:20:17;;;;;;;0.65;0.65;;;22.90;26.40;;;;;;4963199;28;20033;-81
2021/04/01 14:22:48;;;;;;;0.65;0.65;;;23.00;27.00;;;;;;4962117;28;20038;-81
2021/04/01 14:25:31;;;;;;;0.10;0.10;;;23.20;26.80;;;;;;4960067;28;20023;-82
2021/04/01 14:28:06;;;;;;;0.10;0.10;;;23.00;27.40;;;;;;4949998;28;20027;-81
2021/04/01 14:30:36;;;;;;;0.63;0.63;;;23.10;26.20;;;;;;4961351;28;20403;-80
2021/04/01 14:33:03;;;;;;;0.10;0.10;;;23.00;26.50;;;;;;4943861;28;20145;-80
2021/04/01 14:35:31;;;;;;;0.75;0.60;;;22.90;26.60;;;;;;4959732;28;20023;-81
2021/04/01 14:38:00;;;;;;;0.25;0.25;;;23.00;26.80;;;;;;4956305;28;20050;-81
2021/04/01 14:41:00;;;;;;;0.43;0.38;;;23.00;26.40;;;;;;4958597;28;20018;-82
2021/04/01 14:43:29;;;;;;;1.23;0.35;;;23.00;26.40;;;;;;4966576;28;20027;-81
2021/04/01 14:45:57;;;;;;;0.10;0.10;;;22.90;26.40;;;;;;4962700;28;20367;-80
2021/04/01 14:48:24;;;;;;;0.43;0.38;;;22.70;26.70;;;;;;4955548;28;20258;-80
2021/04/01 14:51:12;;;;;;;14.45;1.88;;;22.60;27.00;;;;;;4956914;28;20054;-81